Mountain Green, Utah
Current Conditions -  °F | °C
As of 8:58 AM on Friday 24 Oct 2014 (Local Time) from KHIF Reporting Station
Clear Clear  
Wind Chill: 55°   Ceiling: Unl
Heat Index: 55°   Visibility: 10mi
Dew Point: 31°   Wind: 7mph
Humidity: 41%   Direction: 110°ESE
Pressure: 30.19"   Gusts: NA
Location:  41.0884°N, 111.576°W
Report Text: KHIF 241458Z 11006KT 10SM CLR 13/00 A3019 RMK AO2A SLP193 T01261005 52014
Loading
Personal Weather Stations






























Interactive Weather Map
Tropical Storm Tracking
New forecast layout! Learn more

10-Day Weather Forecast

Advertisements
Track Severe Weather on mobile